map of AOK home
AOK - Airport
Location
City:  Karpathos, Notío Aigaío (Southern Aegean), Greece
ICAO:LGKP
IATA:AOK

Details
Type:Airport (Aerodrome, Airfield)
Use:Public/Civil
Latitude:35°25'17"N (35.421408)
Longitude:27°08'46"E (27.146008)
Datum:WGS 1984
Elevation:66 ft (20 m)
Variation:4.69°E (WMM2015 magnetic declination)
0.09° annual change
Runways:1
Longest:7871 × 98 ft (2399 × 30 m), paved

Time
Time Zone:UTC+2 (DST+3)
Local Time:

Weather
METAR:LGKP 210920Z 29011KT 9999 SCT025 17/11 Q1015

Related Locations
Nearby:
Farthest:RVV: 11578 mi / 18634 km
Raivavae, Tubuai Islands, Austral Islands, PF

Find:

   beyond  
but within

Other Information
Maps:
NOTAMs:
Links:
Sources:

  
  • flag of Greece
  

Sectional Chart

Flight Planning
at skyvector.com

Satellite Image

Google Maps Satellite view

 

Copyright © 2004-2019 Karl L. Swartz. All rights reserved.
The Great Circle Mapper name and logo are trademarks of the Great Circle Mapper.
All other trademarks mentioned herein belong to their respective owners.
Please see credits for attibutions and further copyright information.

  Follow gcmap on Facebook Follow gcmap on Twitter Follow gcmap on Google+ GCmap on LinkedIn

hCard Microformat

Geo Microformat